createdAt,value
2018-06-24T00:01:10.623Z,101107.52
2018-06-24T00:03:15.971Z,101103.08
2018-06-24T00:05:21.375Z,101102.55
2018-06-24T00:07:26.817Z,101105.48
2018-06-24T00:09:32.150Z,101107.48
2018-06-24T00:11:37.585Z,101100.95
2018-06-24T00:13:43.028Z,101098.77
2018-06-24T00:15:48.359Z,101093.11
2018-06-24T00:17:53.878Z,101093.36
2018-06-24T00:19:59.555Z,101087.09
2018-06-24T00:22:04.946Z,101094.97
2018-06-24T00:24:10.429Z,101098.09
2018-06-24T00:26:15.699Z,101097.09
2018-06-24T00:28:20.996Z,101091.14
2018-06-24T00:30:26.417Z,101096.61
2018-06-24T00:32:32.468Z,101095.91
2018-06-24T00:34:37.775Z,101089.28
2018-06-24T00:36:43.005Z,101090.06
2018-06-24T00:38:48.719Z,101088.19
2018-06-24T00:40:54.334Z,101093.26
2018-06-24T00:42:59.841Z,101094.36
2018-06-24T00:45:05.248Z,101083.61
2018-06-24T00:47:10.895Z,101086.09
2018-06-24T00:49:16.290Z,101079.89
2018-06-24T00:51:21.680Z,101080.66
2018-06-24T00:53:27.379Z,101081.88
2018-06-24T00:55:32.792Z,101082.58
2018-06-24T00:57:38.133Z,101076.42
2018-06-24T01:00:00.100Z,101077.92
2018-06-24T01:02:05.634Z,101071.83
2018-06-24T01:04:10.991Z,101068.16
2018-06-24T01:06:16.656Z,101071.04
2018-06-24T01:08:23.461Z,101070.22
2018-06-24T01:10:28.491Z,101067.41
2018-06-24T01:12:33.970Z,101063.34
2018-06-24T01:14:39.321Z,101064.66
2018-06-24T01:16:44.683Z,101057.87
2018-06-24T01:18:50.600Z,101058.44
2018-06-24T01:20:56.020Z,101056.33
2018-06-24T01:23:01.712Z,101057.05
2018-06-24T01:25:08.079Z,101053.93
2018-06-24T01:27:13.559Z,101051.05
2018-06-24T01:29:18.618Z,101048.59
2018-06-24T01:31:23.893Z,101048.36
2018-06-24T01:33:29.364Z,101048.13
2018-06-24T01:35:35.498Z,101046.10
2018-06-24T01:37:40.829Z,101043.65
2018-06-24T01:39:47.751Z,101045.19
2018-06-24T01:41:53.147Z,101051.55
2018-06-24T01:43:58.504Z,101044.77
2018-06-24T01:46:06.972Z,101036.20
2018-06-24T01:48:12.563Z,101042.80
2018-06-24T01:50:18.051Z,101041.95
2018-06-24T01:52:23.600Z,101039.41
2018-06-24T01:54:29.075Z,101039.00
2018-06-24T01:56:34.586Z,101035.10
2018-06-24T01:58:39.915Z,101036.12
2018-06-24T02:00:45.431Z,101031.42
2018-06-24T02:02:51.049Z,101028.53
2018-06-24T02:04:56.423Z,101031.39
2018-06-24T02:07:02.089Z,101026.72
2018-06-24T02:09:11.866Z,101029.48
2018-06-24T02:11:17.107Z,101029.09
2018-06-24T02:13:23.517Z,101024.72
2018-06-24T02:15:28.836Z,101027.77
2018-06-24T02:17:34.260Z,101029.09
2018-06-24T02:19:39.694Z,101025.28
2018-06-24T02:21:45.067Z,101026.72
2018-06-24T02:23:50.506Z,101023.83
2018-06-24T02:25:55.970Z,101016.92
2018-06-24T02:28:01.305Z,101019.10
2018-06-24T02:30:06.704Z,101019.87
2018-06-24T02:32:12.331Z,101020.40
2018-06-24T02:34:17.793Z,101018.25
2018-06-24T02:36:23.646Z,101009.65
2018-06-24T02:38:29.012Z,101009.98
2018-06-24T02:40:34.976Z,101012.94
2018-06-24T02:42:40.227Z,101005.34
2018-06-24T02:44:45.938Z,101005.56
2018-06-24T02:46:51.478Z,101001.55
2018-06-24T02:48:56.897Z,100998.94
2018-06-24T02:51:02.290Z,101003.27
2018-06-24T02:53:07.711Z,100995.65
2018-06-24T02:55:13.011Z,100995.41
2018-06-24T02:57:18.322Z,100998.04
2018-06-24T02:59:23.326Z,100999.20
2018-06-24T03:01:28.685Z,100997.25
2018-06-24T03:03:34.032Z,100994.09
2018-06-24T03:05:39.751Z,100998.84
2018-06-24T03:07:45.333Z,100993.63
2018-06-24T03:09:51.552Z,100987.09
2018-06-24T03:11:57.040Z,100991.30
2018-06-24T03:14:02.324Z,100995.26
2018-06-24T03:16:07.778Z,100998.11
2018-06-24T03:18:13.247Z,100994.79
2018-06-24T03:20:18.591Z,100996.72
2018-06-24T03:22:24.626Z,101001.29
2018-06-24T03:24:30.042Z,100996.98
2018-06-24T03:26:35.313Z,101007.89
2018-06-24T03:28:41.436Z,101002.52
2018-06-24T03:30:46.778Z,101000.28
2018-06-24T03:32:52.444Z,101002.70
2018-06-24T03:34:57.742Z,101004.42
2018-06-24T03:37:03.215Z,101006.36
2018-06-24T03:39:10.948Z,101005.70
2018-06-24T03:41:16.272Z,101002.23
2018-06-24T03:43:21.614Z,101000.31
2018-06-24T03:45:27.431Z,101001.90
2018-06-24T03:47:32.816Z,101003.83
2018-06-24T03:49:38.365Z,101005.66
2018-06-24T03:51:43.751Z,100999.52
2018-06-24T03:53:49.036Z,101009.21
2018-06-24T03:55:54.627Z,101005.91
2018-06-24T03:57:59.988Z,101008.95
2018-06-24T04:00:05.889Z,101004.94
2018-06-24T04:02:11.139Z,101005.08
2018-06-24T04:04:16.417Z,101003.39
2018-06-24T04:06:22.260Z,101003.31
2018-06-24T04:08:27.599Z,101007.92
2018-06-24T04:10:32.899Z,101009.41
2018-06-24T04:12:38.382Z,101011.83
2018-06-24T04:14:43.679Z,101007.50
2018-06-24T04:16:49.049Z,101005.05
2018-06-24T04:18:54.479Z,101008.39
2018-06-24T04:20:59.886Z,101007.25
2018-06-24T04:23:04.933Z,101008.17
2018-06-24T04:25:10.760Z,101010.49
2018-06-24T04:27:16.070Z,101005.88
2018-06-24T04:29:21.391Z,101011.25
2018-06-24T04:31:26.791Z,101005.21
2018-06-24T04:33:32.350Z,101007.96
2018-06-24T04:35:37.772Z,101002.35
2018-06-24T04:37:43.120Z,100997.33
2018-06-24T04:39:48.496Z,100999.19
2018-06-24T04:41:54.169Z,100997.57
2018-06-24T04:43:59.482Z,100994.27
2018-06-24T04:46:04.883Z,100996.67
2018-06-24T04:48:10.230Z,100992.51
2018-06-24T04:50:15.624Z,100996.01
2018-06-24T04:52:21.047Z,100997.02
2018-06-24T04:54:26.494Z,100995.36
2018-06-24T04:56:31.862Z,100994.53
2018-06-24T04:58:37.300Z,100991.17
2018-06-24T05:00:42.711Z,100989.95
2018-06-24T05:02:48.120Z,100987.06
2018-06-24T05:04:53.487Z,100989.30
2018-06-24T05:06:58.788Z,100991.96
2018-06-24T05:09:05.912Z,100987.51
2018-06-24T05:11:11.280Z,100984.38
2018-06-24T05:13:16.694Z,100989.35
2018-06-24T05:15:22.017Z,100994.00
2018-06-24T05:17:27.391Z,100989.17
2018-06-24T05:19:32.615Z,100992.06
2018-06-24T05:21:37.900Z,101001.58
2018-06-24T05:23:43.363Z,101003.36
2018-06-24T05:25:48.727Z,101002.97
2018-06-24T05:27:54.064Z,101007.27
2018-06-24T05:29:59.442Z,101003.52
2018-06-24T05:32:04.852Z,101004.59
2018-06-24T05:34:10.162Z,101007.14
2018-06-24T05:36:16.456Z,101005.59
2018-06-24T05:38:21.803Z,101011.00
2018-06-24T05:40:27.343Z,101006.98
2018-06-24T05:42:32.759Z,101006.05
2018-06-24T05:44:38.222Z,101010.57
2018-06-24T05:46:43.662Z,101012.83
2018-06-24T05:48:49.206Z,100997.58
2018-06-24T05:50:54.510Z,100996.39
2018-06-24T05:52:59.981Z,100996.46
2018-06-24T05:55:05.578Z,100999.16
2018-06-24T05:57:10.892Z,100990.85
2018-06-24T05:59:16.309Z,100995.77
2018-06-24T06:01:21.584Z,100999.39
2018-06-24T06:03:26.671Z,100997.72
2018-06-24T06:05:31.927Z,100996.81
2018-06-24T06:07:37.320Z,100996.25
2018-06-24T06:09:42.854Z,101003.08
2018-06-24T06:11:48.229Z,100999.67
2018-06-24T06:13:53.632Z,100996.11
2018-06-24T06:15:59.158Z,100996.02
2018-06-24T06:18:04.615Z,100996.42
2018-06-24T06:20:10.582Z,101006.20
2018-06-24T06:22:16.066Z,101000.81
2018-06-24T06:24:21.369Z,101001.30
2018-06-24T06:26:26.808Z,101000.24
2018-06-24T06:28:32.285Z,101005.73
2018-06-24T06:30:37.679Z,101005.05
2018-06-24T06:32:43.128Z,101003.01
2018-06-24T06:34:48.492Z,101002.91
2018-06-24T06:36:53.893Z,101000.86
2018-06-24T06:38:59.381Z,100996.41
2018-06-24T06:41:04.669Z,100998.97
2018-06-24T06:43:10.053Z,101000.53
2018-06-24T06:45:15.497Z,100988.17
2018-06-24T06:47:20.826Z,100993.16
2018-06-24T06:49:26.280Z,100988.23
2018-06-24T06:51:31.820Z,100981.36
2018-06-24T06:53:37.158Z,100978.63
2018-06-24T06:55:42.496Z,100986.04
2018-06-24T06:57:47.967Z,100976.30
2018-06-24T06:59:53.291Z,100978.02
2018-06-24T07:01:58.723Z,100978.86
2018-06-24T07:04:04.749Z,100979.22
2018-06-24T07:06:10.120Z,100976.91
2018-06-24T07:08:15.436Z,100978.45
2018-06-24T07:10:20.757Z,100984.42
2018-06-24T07:12:26.179Z,100980.16
2018-06-24T07:14:31.603Z,100976.99
2018-06-24T07:16:37.040Z,100980.14
2018-06-24T07:18:42.351Z,100986.52
2018-06-24T07:20:47.720Z,100980.97
2018-06-24T07:22:53.179Z,100979.19
2018-06-24T07:24:58.566Z,100983.20
2018-06-24T07:27:04.118Z,100977.20
2018-06-24T07:29:09.858Z,100974.53
2018-06-24T07:31:15.220Z,100974.27
2018-06-24T07:33:20.603Z,100972.39
2018-06-24T07:35:25.954Z,100971.86
2018-06-24T07:37:30.998Z,100974.33
2018-06-24T07:39:36.543Z,100974.98
2018-06-24T07:41:41.954Z,100968.88
2018-06-24T07:43:47.508Z,100974.12
2018-06-24T07:45:52.889Z,100976.45
2018-06-24T07:47:58.312Z,100973.14
2018-06-24T07:50:03.747Z,100967.68
2018-06-24T07:52:09.216Z,100971.31
2018-06-24T07:54:14.965Z,100971.57
2018-06-24T07:56:20.310Z,100969.37
2018-06-24T07:58:25.765Z,100968.95
2018-06-24T08:00:31.384Z,100972.61
2018-06-24T08:02:37.061Z,100979.02
2018-06-24T08:04:42.460Z,100975.85
2018-06-24T08:06:47.830Z,100970.98
2018-06-24T08:08:53.291Z,100974.38
2018-06-24T08:10:58.773Z,100967.31
2018-06-24T08:13:04.302Z,100962.30
2018-06-24T08:15:09.743Z,100963.38
2018-06-24T08:17:15.086Z,100965.20
2018-06-24T08:19:20.598Z,100970.06
2018-06-24T08:21:25.993Z,100968.24
2018-06-24T08:23:31.396Z,100976.48
2018-06-24T08:25:36.853Z,100979.41
2018-06-24T08:27:42.266Z,100979.94
2018-06-24T08:29:47.611Z,100978.38
2018-06-24T08:31:53.470Z,100977.05
2018-06-24T08:33:58.784Z,100978.88
2018-06-24T08:36:05.172Z,100978.43
2018-06-24T08:38:10.539Z,100972.73
2018-06-24T08:40:15.909Z,100976.16
2018-06-24T08:42:20.988Z,100974.73
2018-06-24T08:44:26.290Z,100973.40
2018-06-24T08:46:31.725Z,100969.02
2018-06-24T08:48:37.202Z,100970.62
2018-06-24T08:50:42.584Z,100975.33
2018-06-24T08:52:47.965Z,100965.75
2018-06-24T08:54:53.346Z,100972.06
2018-06-24T08:56:58.716Z,100973.30
2018-06-24T08:59:04.271Z,100977.64
2018-06-24T09:01:09.564Z,100972.66
2018-06-24T09:03:15.042Z,100977.64
2018-06-24T09:05:20.346Z,100968.06
2018-06-24T09:07:25.730Z,100974.38
2018-06-24T09:09:31.118Z,100975.81
2018-06-24T09:11:36.608Z,100974.85
2018-06-24T09:13:41.983Z,100974.62
2018-06-24T09:15:47.391Z,100968.55
2018-06-24T09:17:52.748Z,100966.73
2018-06-24T09:19:58.169Z,100967.06
2018-06-24T09:22:03.796Z,100972.56
2018-06-24T09:24:09.320Z,100972.08
2018-06-24T09:26:14.718Z,100972.41
2018-06-24T09:28:20.735Z,100969.52
2018-06-24T09:30:26.134Z,100969.26
2018-06-24T09:32:31.502Z,100965.39
2018-06-24T09:34:36.948Z,100969.89
2018-06-24T09:36:42.356Z,100965.87
2018-06-24T09:38:47.826Z,100958.08
2018-06-24T09:40:53.251Z,100966.22
2018-06-24T09:42:58.685Z,100964.65
2018-06-24T09:45:04.109Z,100963.54
2018-06-24T09:47:09.228Z,100960.16
2018-06-24T09:49:14.534Z,100967.55
2018-06-24T09:51:19.978Z,100958.19
2018-06-24T09:53:25.356Z,100962.08
2018-06-24T09:55:30.751Z,100957.80
2018-06-24T09:57:36.688Z,100953.46
2018-06-24T09:59:42.086Z,100959.41
2018-06-24T10:01:47.603Z,100952.36
2018-06-24T10:03:53.040Z,100952.13
2018-06-24T10:05:58.422Z,100952.13
2018-06-24T10:08:04.000Z,100949.69
2018-06-24T10:10:09.466Z,100953.95
2018-06-24T10:12:14.981Z,100950.30
2018-06-24T10:14:20.679Z,100947.39
2018-06-24T10:16:26.229Z,100943.74
2018-06-24T10:18:31.583Z,100937.52
2018-06-24T10:20:37.112Z,100944.05
2018-06-24T10:22:42.451Z,100936.39
2018-06-24T10:24:47.741Z,100936.98
2018-06-24T10:26:53.128Z,100934.17
2018-06-24T10:28:58.459Z,100936.09
2018-06-24T10:31:03.567Z,100935.98
2018-06-24T10:33:09.153Z,100928.44
2018-06-24T10:35:14.538Z,100925.64
2018-06-24T10:37:20.119Z,100923.09
2018-06-24T10:39:27.028Z,100921.89
2018-06-24T10:41:32.462Z,100923.27
2018-06-24T10:43:37.894Z,100918.80
2018-06-24T10:45:43.376Z,100920.63
2018-06-24T10:47:48.800Z,100924.63
2018-06-24T10:49:54.268Z,100924.25
2018-06-24T10:51:59.789Z,100932.86
2018-06-24T10:54:05.802Z,100931.80
2018-06-24T10:56:11.254Z,100926.92
2018-06-24T10:58:17.264Z,100928.02
2018-06-24T11:00:23.530Z,100924.38
2018-06-24T11:02:29.012Z,100924.53
2018-06-24T11:04:36.516Z,100924.75
2018-06-24T11:06:42.079Z,100920.25
2018-06-24T11:08:47.568Z,100921.12
2018-06-24T11:10:52.964Z,100925.73
2018-06-24T11:12:58.346Z,100909.20
2018-06-24T11:15:03.775Z,100913.58
2018-06-24T11:17:09.226Z,100907.48
2018-06-24T11:19:14.654Z,100907.13
2018-06-24T11:21:19.755Z,100911.95
2018-06-24T11:23:25.036Z,100902.47
2018-06-24T11:25:30.380Z,100906.36
2018-06-24T11:27:35.868Z,100897.70
2018-06-24T11:29:41.183Z,100899.52
2018-06-24T11:31:46.604Z,100898.33
2018-06-24T11:33:52.141Z,100899.89
2018-06-24T11:35:57.744Z,100896.49
2018-06-24T11:38:03.305Z,100891.36
2018-06-24T11:40:08.767Z,100891.58
2018-06-24T11:42:14.104Z,100888.24
2018-06-24T11:44:22.371Z,100880.06
2018-06-24T11:46:28.307Z,100881.50
2018-06-24T11:48:33.730Z,100891.12
2018-06-24T11:50:39.740Z,100884.88
2018-06-24T11:52:45.364Z,100881.11
2018-06-24T11:57:06.848Z,100878.28
2018-06-24T11:59:12.300Z,100873.98
2018-06-24T12:01:17.926Z,100870.82
2018-06-24T12:03:24.635Z,100866.69
2018-06-24T12:05:29.980Z,100867.69
2018-06-24T12:07:39.853Z,100866.59
2018-06-24T12:09:45.350Z,100866.20
2018-06-24T12:11:50.717Z,100865.95
2018-06-24T12:13:56.086Z,100870.00
2018-06-24T12:16:01.452Z,100863.46
2018-06-24T12:18:07.658Z,100854.70
2018-06-24T12:20:13.042Z,100856.89
2018-06-24T12:22:18.392Z,100860.23
2018-06-24T12:24:24.558Z,100853.38
2018-06-24T12:26:30.527Z,100845.88
2018-06-24T12:28:35.966Z,100849.73
2018-06-24T12:30:41.570Z,100848.56
2018-06-24T12:32:46.959Z,100847.45
2018-06-24T12:34:52.383Z,100840.64
2018-06-24T12:36:57.854Z,100845.59
2018-06-24T12:39:04.391Z,100838.16
2018-06-24T12:41:09.911Z,100840.27
2018-06-24T12:43:15.330Z,100834.67
2018-06-24T12:45:21.688Z,100829.19
2018-06-24T12:47:27.075Z,100835.84
2018-06-24T12:49:32.587Z,100834.71
2018-06-24T12:51:38.842Z,100829.87
2018-06-24T12:53:43.966Z,100840.48
2018-06-24T12:55:49.311Z,100840.12
2018-06-24T12:57:55.923Z,100844.25
2018-06-24T13:00:01.831Z,100841.16
2018-06-24T13:02:06.841Z,100841.03
2018-06-24T13:04:12.285Z,100837.22
2018-06-24T13:06:17.723Z,100828.20
2018-06-24T13:08:23.154Z,100832.71
2018-06-24T13:10:28.627Z,100831.24
2018-06-24T13:12:34.041Z,100826.32
2018-06-24T13:14:39.491Z,100821.92
2018-06-24T13:16:44.875Z,100823.83
2018-06-24T13:18:50.346Z,100818.34
2018-06-24T13:20:55.727Z,100822.00
2018-06-24T13:23:01.174Z,100820.60
2018-06-24T13:25:06.625Z,100813.28
2018-06-24T13:27:12.082Z,100812.50
2018-06-24T13:29:17.793Z,100800.56
2018-06-24T13:31:23.204Z,100803.80
2018-06-24T13:33:28.643Z,100805.30
2018-06-24T13:35:33.980Z,100806.84
2018-06-24T13:37:39.075Z,100794.16
2018-06-24T13:39:44.418Z,100801.29
2018-06-24T13:41:49.801Z,100807.28
2018-06-24T13:43:55.290Z,100798.00
2018-06-24T13:46:00.781Z,100793.39
2018-06-24T13:48:06.687Z,100791.92
2018-06-24T13:50:12.116Z,100795.45
2018-06-24T13:52:17.550Z,100800.53
2018-06-24T13:54:23.067Z,100798.70
2018-06-24T13:56:29.106Z,100793.00
2018-06-24T13:58:34.516Z,100791.14
2018-06-24T14:00:39.977Z,100783.69
2018-06-24T14:02:45.459Z,100783.55
2018-06-24T14:04:51.153Z,100785.67
2018-06-24T14:06:56.551Z,100780.31
2018-06-24T14:09:01.997Z,100778.02
2018-06-24T14:11:07.598Z,100779.85
2018-06-24T14:13:13.151Z,100779.17
2018-06-24T14:15:18.644Z,100775.02
2018-06-24T14:17:25.055Z,100770.06
2018-06-24T14:19:30.199Z,100767.54
2018-06-24T14:21:35.559Z,100773.25
2018-06-24T14:23:41.039Z,100769.64
2018-06-24T14:25:46.594Z,100760.31
2018-06-24T14:27:52.091Z,100768.59
2018-06-24T14:29:57.603Z,100772.39
2018-06-24T14:32:03.048Z,100766.05
2018-06-24T14:34:08.581Z,100765.08
2018-06-24T14:36:14.030Z,100770.36
2018-06-24T14:38:19.516Z,100771.02
2018-06-24T14:40:24.964Z,100766.00
2018-06-24T14:42:30.511Z,100764.92
2018-06-24T14:44:36.036Z,100757.41
2018-06-24T14:46:41.325Z,100761.44
2018-06-24T14:48:46.794Z,100758.75
2018-06-24T14:50:52.214Z,100752.77
2018-06-24T14:52:57.610Z,100748.51
2018-06-24T14:55:02.704Z,100748.70
2018-06-24T14:57:08.011Z,100747.64
2018-06-24T14:59:13.428Z,100752.27
2018-06-24T15:01:18.884Z,100744.50
2018-06-24T15:03:24.978Z,100741.25
2018-06-24T15:05:30.447Z,100749.84
2018-06-24T15:07:35.877Z,100753.93
2018-06-24T15:09:41.295Z,100743.19
2018-06-24T15:11:46.709Z,100746.67
2018-06-24T15:13:52.183Z,100751.50
2018-06-24T15:15:57.612Z,100742.51
2018-06-24T15:18:03.040Z,100738.31
2018-06-24T15:20:08.573Z,100737.88
2018-06-24T15:22:13.963Z,100739.30
2018-06-24T15:24:19.456Z,100740.48
2018-06-24T15:26:25.100Z,100750.31
2018-06-24T15:28:30.478Z,100740.86
2018-06-24T15:30:35.997Z,100740.73
2018-06-24T15:32:41.390Z,100743.41
2018-06-24T15:34:46.877Z,100738.18
2018-06-24T15:36:52.239Z,100743.50
2018-06-24T15:38:57.635Z,100735.52
2018-06-24T15:41:03.108Z,100743.66
2018-06-24T15:43:08.178Z,100738.72
2018-06-24T15:45:13.484Z,100739.28
2018-06-24T15:47:18.892Z,100740.52
2018-06-24T15:49:25.103Z,100743.56
2018-06-24T15:51:30.561Z,100734.47
2018-06-24T15:53:35.993Z,100734.70
2018-06-24T15:55:41.478Z,100728.39
2018-06-24T15:57:46.975Z,100730.33
2018-06-24T15:59:52.372Z,100740.89
2018-06-24T16:01:57.494Z,100738.28
2018-06-24T16:04:02.942Z,100741.52
2018-06-24T16:06:08.420Z,100739.75
2018-06-24T16:08:14.546Z,100743.41
2018-06-24T16:10:20.000Z,100734.55
2018-06-24T16:12:25.649Z,100730.30
2018-06-24T16:14:31.019Z,100730.72
2018-06-24T16:16:37.153Z,100733.47
2018-06-24T16:18:42.613Z,100732.31
2018-06-24T16:20:48.114Z,100730.91
2018-06-24T16:22:53.552Z,100731.04
2018-06-24T16:24:58.973Z,100728.62
2018-06-24T16:27:04.485Z,100727.33
2018-06-24T16:29:09.880Z,100725.14
2018-06-24T16:31:15.424Z,100728.67
2018-06-24T16:33:21.064Z,100722.27
2018-06-24T16:35:26.592Z,100723.86
2018-06-24T16:37:31.675Z,100726.34
2018-06-24T16:39:37.034Z,100732.80
2018-06-24T16:41:42.516Z,100736.46
2018-06-24T16:43:47.894Z,100732.37
2018-06-24T16:45:54.222Z,100732.30
2018-06-24T16:47:59.615Z,100726.14
2018-06-24T16:50:05.186Z,100728.50
2018-06-24T16:52:10.617Z,100734.99
2018-06-24T16:54:15.787Z,100726.88
2018-06-24T16:56:21.092Z,100730.45
2018-06-24T16:58:26.614Z,100735.58
2018-06-24T17:00:32.028Z,100729.29
2018-06-24T17:02:37.862Z,100723.86
2018-06-24T17:04:43.273Z,100724.23
2018-06-24T17:06:48.465Z,100718.27
2018-06-24T17:08:53.801Z,100730.11
2018-06-24T17:10:59.157Z,100730.52
2018-06-24T17:13:04.644Z,100728.58
2018-06-24T17:15:09.993Z,100727.52
2018-06-24T17:17:15.446Z,100726.94
2018-06-24T17:19:20.956Z,100726.83
2018-06-24T17:21:26.468Z,100724.30
2018-06-24T17:23:31.954Z,100725.04
2018-06-24T17:25:37.473Z,100731.52
2018-06-24T17:27:42.906Z,100730.79
2018-06-24T17:29:49.395Z,100736.27
2018-06-24T17:31:54.862Z,100732.89
2018-06-24T17:34:00.278Z,100729.37
2018-06-24T17:36:05.894Z,100725.59
2018-06-24T17:38:11.431Z,100731.59
2018-06-24T17:40:16.890Z,100728.06
2018-06-24T17:42:23.415Z,100731.22
2018-06-24T17:44:28.915Z,100732.56
2018-06-24T17:46:34.334Z,100728.18
2018-06-24T17:48:39.750Z,100724.44
2018-06-24T17:50:45.188Z,100738.80
2018-06-24T17:52:50.566Z,100733.56
2018-06-24T17:54:55.966Z,100735.05
2018-06-24T17:57:01.441Z,100730.44
2018-06-24T17:59:06.944Z,100734.59
2018-06-24T18:01:12.345Z,100728.16
2018-06-24T18:03:17.876Z,100731.47
2018-06-24T18:05:23.373Z,100732.80
2018-06-24T18:07:28.957Z,100733.62
2018-06-24T18:09:34.497Z,100727.94
2018-06-24T18:11:40.104Z,100725.88
2018-06-24T18:13:45.596Z,100735.32
2018-06-24T18:15:50.898Z,100729.76
2018-06-24T18:17:56.343Z,100733.04
2018-06-24T18:20:01.861Z,100734.16
2018-06-24T18:22:07.435Z,100731.00
2018-06-24T18:24:12.829Z,100730.36
2018-06-24T18:26:18.244Z,100728.66
2018-06-24T18:28:23.843Z,100724.53
2018-06-24T18:30:29.280Z,100727.08
2018-06-24T18:32:34.790Z,100730.61
2018-06-24T18:34:40.810Z,100729.88
2018-06-24T18:36:46.397Z,100739.63
2018-06-24T18:38:51.902Z,100737.23
2018-06-24T18:40:57.257Z,100738.20
2018-06-24T18:43:02.723Z,100735.64
2018-06-24T18:45:08.233Z,100736.86
2018-06-24T18:47:13.828Z,100744.25
2018-06-24T18:49:19.421Z,100737.08
2018-06-24T18:51:25.687Z,100741.09
2018-06-24T18:53:30.774Z,100734.79
2018-06-24T18:55:36.736Z,100743.94
2018-06-24T18:57:42.295Z,100742.95
2018-06-24T18:59:47.973Z,100746.38
2018-06-24T19:01:53.177Z,100736.81
2018-06-24T19:03:58.551Z,100739.97
2018-06-24T19:06:04.077Z,100739.72
2018-06-24T19:08:09.462Z,100744.36
2018-06-24T19:10:14.851Z,100740.22
2018-06-24T19:12:20.362Z,100754.06
2018-06-24T19:14:25.491Z,100754.59
2018-06-24T19:16:31.049Z,100753.36
2018-06-24T19:18:36.525Z,100753.00
2018-06-24T19:20:42.050Z,100754.82
2018-06-24T19:22:47.668Z,100752.27
2018-06-24T19:24:53.140Z,100752.53
2018-06-24T19:26:58.759Z,100755.80
2018-06-24T19:29:04.139Z,100754.61
2018-06-24T19:31:09.627Z,100755.70
2018-06-24T19:33:15.114Z,100752.92
2018-06-24T19:35:21.170Z,100759.02
2018-06-24T19:37:26.742Z,100763.25
2018-06-24T19:39:32.200Z,100770.20
2018-06-24T19:41:37.736Z,100771.16
2018-06-24T19:43:44.024Z,100765.68
2018-06-24T19:45:49.668Z,100770.06
2018-06-24T19:47:54.769Z,100773.59
2018-06-24T19:50:00.200Z,100779.65
2018-06-24T19:52:05.670Z,100778.57
2018-06-24T19:54:11.327Z,100782.47
2018-06-24T19:56:16.854Z,100785.98
2018-06-24T19:58:22.300Z,100779.05
2018-06-24T20:00:27.756Z,100780.17
2018-06-24T20:02:32.816Z,100786.22
2018-06-24T20:04:38.170Z,100794.59
2018-06-24T20:06:43.627Z,100794.48
2018-06-24T20:08:49.090Z,100795.44
2018-06-24T20:10:54.461Z,100795.70
2018-06-24T20:13:00.028Z,100800.66
2018-06-24T20:15:05.545Z,100804.67
2018-06-24T20:17:11.115Z,100804.89
2018-06-24T20:19:16.596Z,100801.74
2018-06-24T20:21:22.040Z,100811.56
2018-06-24T20:23:27.825Z,100813.05
2018-06-24T20:25:33.230Z,100814.02
2018-06-24T20:27:38.855Z,100816.79
2018-06-24T20:29:44.133Z,100816.79
2018-06-24T20:31:49.472Z,100816.08
2018-06-24T20:33:54.928Z,100818.22
2018-06-24T20:36:00.397Z,100818.95
2018-06-24T20:38:06.467Z,100816.55
2018-06-24T20:40:11.969Z,100819.32
2018-06-24T20:42:17.590Z,100813.75
2018-06-24T20:44:23.908Z,100818.94
2018-06-24T20:46:29.402Z,100818.78
2018-06-24T20:48:34.801Z,100815.98
2018-06-24T20:50:40.232Z,100816.09
2018-06-24T20:52:46.016Z,100810.87
2018-06-24T20:54:51.469Z,100808.09
2018-06-24T20:56:56.902Z,100810.28
2018-06-24T20:59:02.319Z,100807.86
2018-06-24T21:01:07.921Z,100819.72
2018-06-24T21:03:13.466Z,100828.21
2018-06-24T21:05:18.915Z,100831.39
2018-06-24T21:07:25.824Z,100824.72
2018-06-24T21:09:31.234Z,100819.86
2018-06-24T21:11:36.693Z,100818.05
2018-06-24T21:13:42.131Z,100824.72
2018-06-24T21:15:47.620Z,100821.20
2018-06-24T21:17:53.083Z,100827.39
2018-06-24T21:19:58.519Z,100832.35
2018-06-24T21:22:03.909Z,100832.09
2018-06-24T21:24:09.352Z,100830.25
2018-06-24T21:26:14.790Z,100824.06
2018-06-24T21:28:20.461Z,100826.25
2018-06-24T21:30:26.031Z,100828.92
2018-06-24T21:32:31.389Z,100827.22
2018-06-24T21:34:36.776Z,100831.96
2018-06-24T21:36:42.212Z,100833.30
2018-06-24T21:38:47.642Z,100829.30
2018-06-24T21:40:53.012Z,100830.73
2018-06-24T21:42:58.351Z,100832.44
2018-06-24T21:45:03.840Z,100822.63
2018-06-24T21:47:09.154Z,100824.44
2018-06-24T21:49:14.520Z,100824.92
2018-06-24T21:51:20.364Z,100828.55
2018-06-24T21:53:25.825Z,100833.03
2018-06-24T21:55:31.310Z,100828.80
2018-06-24T21:57:36.917Z,100828.05
2018-06-24T21:59:42.248Z,100835.09
2018-06-24T22:01:47.772Z,100832.42
2018-06-24T22:03:53.317Z,100831.44
2018-06-24T22:05:58.687Z,100835.34
2018-06-24T22:08:03.997Z,100836.19
2018-06-24T22:10:09.360Z,100833.63
2018-06-24T22:12:14.794Z,100835.34
2018-06-24T22:14:20.247Z,100838.48
2018-06-24T22:16:25.879Z,100842.22
2018-06-24T22:18:31.285Z,100848.88
2018-06-24T22:20:36.739Z,100842.35
2018-06-24T22:22:42.154Z,100848.27
2018-06-24T22:24:47.606Z,100849.34
2018-06-24T22:26:53.288Z,100853.48
2018-06-24T22:28:58.624Z,100849.83
2018-06-24T22:31:04.031Z,100846.89
2018-06-24T22:33:09.500Z,100843.37
2018-06-24T22:35:14.999Z,100844.81
2018-06-24T22:37:20.485Z,100851.13
2018-06-24T22:39:25.856Z,100851.61
2018-06-24T22:41:31.236Z,100856.20
2018-06-24T22:43:36.580Z,100854.14
2018-06-24T22:45:42.021Z,100847.48
2018-06-24T22:47:47.631Z,100853.77
2018-06-24T22:49:53.049Z,100853.64
2018-06-24T22:51:58.810Z,100853.84
2018-06-24T22:54:04.388Z,100854.33
2018-06-24T22:56:10.061Z,100858.94
2018-06-24T22:58:15.122Z,100857.09
2018-06-24T23:00:20.579Z,100857.95
2018-06-24T23:02:26.141Z,100862.94
2018-06-24T23:04:31.508Z,100855.89
2018-06-24T23:06:36.866Z,100855.04
2018-06-24T23:08:42.164Z,100857.81
2018-06-24T23:10:47.574Z,100865.09
2018-06-24T23:12:53.068Z,100867.75
2018-06-24T23:14:58.501Z,100871.24
2018-06-24T23:17:03.879Z,100871.37
2018-06-24T23:19:09.423Z,100870.05
2018-06-24T23:21:14.825Z,100867.37
2018-06-24T23:23:20.232Z,100867.86
2018-06-24T23:25:26.334Z,100869.98
2018-06-24T23:27:31.803Z,100864.00
2018-06-24T23:29:37.150Z,100868.63
2018-06-24T23:31:42.555Z,100871.87
2018-06-24T23:33:47.953Z,100874.87
2018-06-24T23:35:53.319Z,100872.02
2018-06-24T23:37:58.689Z,100870.55
2018-06-24T23:40:04.388Z,100871.98
2018-06-24T23:42:09.847Z,100869.83
2018-06-24T23:44:15.263Z,100866.79
2018-06-24T23:46:20.591Z,100860.13
2018-06-24T23:48:27.269Z,100869.08
2018-06-24T23:50:32.624Z,100867.47
2018-06-24T23:52:38.023Z,100861.89
2018-06-24T23:54:43.468Z,100862.84